createdAt,value
2024-01-08T00:01:25.098Z,99164.25
2024-01-08T00:03:26.845Z,99161.75
2024-01-08T00:05:28.364Z,99162.97
2024-01-08T00:07:29.871Z,99176.25
2024-01-08T00:09:31.988Z,99177.28
2024-01-08T00:11:33.499Z,99176.25
2024-01-08T00:13:34.980Z,99185.34
2024-01-08T00:15:36.519Z,99180.81
2024-01-08T00:17:38.241Z,99178.31
2024-01-08T00:19:39.755Z,99181.00
2024-01-08T00:21:42.198Z,99181.19
2024-01-08T00:23:43.694Z,99181.19
2024-01-08T00:25:45.201Z,99180.75
2024-01-08T00:27:46.688Z,99186.31
2024-01-08T00:29:48.251Z,99179.72
2024-01-08T00:31:49.740Z,99181.75
2024-01-08T00:33:51.294Z,99181.97
2024-01-08T00:35:53.765Z,99174.06
2024-01-08T00:37:55.314Z,99174.06
2024-01-08T00:39:56.786Z,99176.94
2024-01-08T00:41:58.247Z,99172.41
2024-01-08T00:44:00.715Z,99180.88
2024-01-08T00:46:02.602Z,99177.13
2024-01-08T00:48:04.478Z,99179.00
2024-01-08T00:50:06.478Z,99181.72
2024-01-08T00:52:08.005Z,99186.41
2024-01-08T00:54:09.594Z,99181.88
2024-01-08T00:56:11.142Z,99180.22
2024-01-08T00:58:12.665Z,99176.84
2024-01-08T01:00:14.360Z,99184.13
2024-01-08T01:02:17.018Z,99176.06
2024-01-08T01:04:18.701Z,99183.94
2024-01-08T01:06:22.427Z,99177.69
2024-01-08T01:08:24.125Z,99173.16
2024-01-08T01:10:25.773Z,99191.00
2024-01-08T01:12:27.285Z,99181.25
2024-01-08T01:14:28.851Z,99180.22
2024-01-08T01:16:31.033Z,99189.31
2024-01-08T01:18:32.653Z,99190.34
2024-01-08T01:20:34.142Z,99191.38
2024-01-08T01:22:35.637Z,99189.91
2024-01-08T01:24:37.185Z,99193.59
2024-01-08T01:26:38.695Z,99192.75
2024-01-08T01:28:40.207Z,99200.03
2024-01-08T01:30:41.709Z,99208.13
2024-01-08T01:32:43.341Z,99198.16
2024-01-08T01:34:44.897Z,99195.28
2024-01-08T01:36:48.164Z,99197.97
2024-01-08T01:38:49.922Z,99197.97
2024-01-08T01:40:51.415Z,99191.94
2024-01-08T01:42:55.659Z,99201.06
2024-01-08T01:44:57.117Z,99197.72
2024-01-08T01:46:59.427Z,99199.56
2024-01-08T01:49:01.084Z,99204.13
2024-01-08T01:51:05.934Z,99200.56
2024-01-08T01:53:07.896Z,99196.41
2024-01-08T01:55:11.326Z,99198.28
2024-01-08T01:57:12.995Z,99194.56
2024-01-08T01:59:17.148Z,99188.16
2024-01-08T02:01:19.331Z,99193.72
2024-01-08T02:03:21.655Z,99196.22
2024-01-08T02:05:23.847Z,99192.91
2024-01-08T02:07:25.622Z,99198.09
2024-01-08T02:09:28.251Z,99198.94
2024-01-08T02:11:30.284Z,99196.88
2024-01-08T02:13:31.866Z,99193.97
2024-01-08T02:15:33.435Z,99193.81
2024-01-08T02:17:35.042Z,99194.81
2024-01-08T02:19:36.665Z,99195.84
2024-01-08T02:21:38.136Z,99194.81
2024-01-08T02:23:39.785Z,99198.34
2024-01-08T02:25:41.311Z,99194.81
2024-01-08T02:27:42.954Z,99193.81
2024-01-08T02:29:44.379Z,99190.47
2024-01-08T02:31:45.906Z,99186.75
2024-01-08T02:33:49.883Z,99195.03
2024-01-08T02:35:52.432Z,99192.13
2024-01-08T02:37:53.954Z,99190.47
2024-01-08T02:39:55.456Z,99191.69
2024-01-08T02:41:57.524Z,99188.78
2024-01-08T02:43:58.983Z,99191.84
2024-01-08T02:46:00.478Z,99186.66
2024-01-08T02:48:02.028Z,99189.16
2024-01-08T02:50:03.984Z,99192.69
2024-01-08T02:52:05.593Z,99187.31
2024-01-08T02:54:07.130Z,99203.47
2024-01-08T02:56:18.660Z,99197.44
2024-01-08T02:58:20.164Z,99195.59
2024-01-08T03:00:21.827Z,99192.91
2024-01-08T03:02:26.759Z,99190.38
2024-01-08T03:04:28.899Z,99195.59
2024-01-08T03:06:30.533Z,99198.28
2024-01-08T03:08:32.073Z,99198.28
2024-01-08T03:10:33.526Z,99198.09
2024-01-08T03:12:35.183Z,99195.41
2024-01-08T03:14:36.639Z,99192.91
2024-01-08T03:16:38.219Z,99190.22
2024-01-08T03:18:40.745Z,99205.69
2024-01-08T03:20:42.643Z,99194.13
2024-01-08T03:22:44.146Z,99202.00
2024-01-08T03:24:45.922Z,99206.53
2024-01-08T03:26:47.398Z,99196.81
2024-01-08T03:28:49.065Z,99200.31
2024-01-08T03:30:51.537Z,99204.88
2024-01-08T03:32:53.058Z,99206.53
2024-01-08T03:34:54.556Z,99194.13
2024-01-08T03:36:56.089Z,99213.78
2024-01-08T03:38:58.044Z,99217.31
2024-01-08T03:40:59.560Z,99215.84
2024-01-08T03:43:02.415Z,99215.66
2024-01-08T03:45:04.063Z,99213.78
2024-01-08T03:47:05.602Z,99211.50
2024-01-08T03:49:08.216Z,99220.56
2024-01-08T03:51:09.668Z,99218.53
2024-01-08T03:53:11.728Z,99213.97
2024-01-08T03:55:13.430Z,99219.38
2024-01-08T03:57:14.864Z,99225.59
2024-01-08T03:59:16.503Z,99224.75
2024-01-08T04:01:18.008Z,99230.97
2024-01-08T04:03:19.688Z,99227.66
2024-01-08T04:05:21.620Z,99221.59
2024-01-08T04:07:23.426Z,99225.31
2024-01-08T04:09:24.875Z,99221.78
2024-01-08T04:11:26.940Z,99223.47
2024-01-08T04:13:28.453Z,99223.47
2024-01-08T04:15:29.945Z,99223.47
2024-01-08T04:17:31.637Z,99231.56
2024-01-08T04:19:33.281Z,99221.41
2024-01-08T04:21:34.740Z,99225.97
2024-01-08T04:23:36.235Z,99229.31
2024-01-08T04:25:37.873Z,99226.81
2024-01-08T04:27:39.342Z,99235.06
2024-01-08T04:29:40.830Z,99228.03
2024-01-08T04:31:42.479Z,99227.19
2024-01-08T04:33:44.066Z,99229.66
2024-01-08T04:35:45.586Z,99230.50
2024-01-08T04:37:47.091Z,99231.34
2024-01-08T04:39:48.602Z,99234.03
2024-01-08T04:41:50.032Z,99234.03
2024-01-08T04:43:51.597Z,99230.34
2024-01-08T04:45:53.106Z,99241.75
2024-01-08T04:47:54.795Z,99246.31
2024-01-08T04:49:56.333Z,99243.41
2024-01-08T04:51:57.809Z,99240.72
2024-01-08T04:53:59.557Z,99235.53
2024-01-08T04:56:01.103Z,99245.47
2024-01-08T04:58:02.614Z,99238.44
2024-01-08T05:00:04.661Z,99240.28
2024-01-08T05:02:06.192Z,99242.13
2024-01-08T05:04:10.506Z,99239.63
2024-01-08T05:06:14.702Z,99249.56
2024-01-08T05:08:16.281Z,99249.56
2024-01-08T05:10:17.722Z,99251.22
2024-01-08T05:12:19.240Z,99263.03
2024-01-08T05:14:20.721Z,99261.19
2024-01-08T05:16:22.199Z,99252.25
2024-01-08T05:18:23.756Z,99261.19
2024-01-08T05:20:25.283Z,99254.13
2024-01-08T05:22:26.796Z,99255.97
2024-01-08T05:24:28.240Z,99257.00
2024-01-08T05:26:29.780Z,99254.47
2024-01-08T05:28:31.321Z,99263.41
2024-01-08T05:30:33.250Z,99265.09
2024-01-08T05:32:35.049Z,99259.03
2024-01-08T05:34:36.844Z,99256.34
2024-01-08T05:36:42.062Z,99261.72
2024-01-08T05:38:43.624Z,99255.31
2024-01-08T05:40:45.064Z,99258.84
2024-01-08T05:42:46.628Z,99259.88
2024-01-08T05:44:48.515Z,99257.00
2024-01-08T05:46:49.972Z,99260.50
2024-01-08T05:48:51.494Z,99258.66
2024-01-08T05:50:53.021Z,99265.09
2024-01-08T05:52:55.300Z,99263.03
2024-01-08T05:54:57.423Z,99258.66
2024-01-08T05:56:59.071Z,99257.81
2024-01-08T05:59:00.911Z,99264.41
2024-01-08T06:01:02.572Z,99268.78
2024-01-08T06:03:04.349Z,99266.09
2024-01-08T06:05:06.326Z,99266.09
2024-01-08T06:07:07.846Z,99269.78
2024-01-08T06:09:10.066Z,99274.53
2024-01-08T06:11:11.663Z,99270.38
2024-01-08T06:13:15.998Z,99269.34
2024-01-08T06:15:17.477Z,99279.28
2024-01-08T06:17:18.995Z,99268.50
2024-01-08T06:19:21.750Z,99273.91
2024-01-08T06:21:23.440Z,99274.75
2024-01-08T06:23:27.211Z,99273.06
2024-01-08T06:25:28.961Z,99277.59
2024-01-08T06:27:30.414Z,99278.44
2024-01-08T06:29:31.968Z,99276.78
2024-01-08T06:31:33.476Z,99286.72
2024-01-08T06:33:35.757Z,99277.81
2024-01-08T06:35:37.410Z,99278.66
2024-01-08T06:37:38.970Z,99276.78
2024-01-08T06:39:40.585Z,99280.84
2024-01-08T06:41:42.092Z,99284.38
2024-01-08T06:43:43.533Z,99292.47
2024-01-08T06:45:45.053Z,99288.09
2024-01-08T06:47:46.703Z,99283.09
2024-01-08T06:49:48.191Z,99291.84
2024-01-08T06:51:50.197Z,99286.81
2024-01-08T06:53:51.702Z,99293.41
2024-01-08T06:55:53.292Z,99303.97
2024-01-08T06:57:55.807Z,99311.03
2024-01-08T06:59:57.514Z,99305.00
2024-01-08T07:02:22.818Z,99312.59
2024-01-08T07:04:42.911Z,99315.66
2024-01-08T07:06:51.430Z,99316.22
2024-01-08T07:09:11.796Z,99313.88
2024-01-08T07:11:26.662Z,99323.38
2024-01-08T07:13:31.238Z,99320.88
2024-01-08T07:15:40.715Z,99325.56
2024-01-08T07:17:42.842Z,99326.13
2024-01-08T07:19:44.750Z,99334.19
2024-01-08T07:21:46.267Z,99334.56
2024-01-08T07:23:49.803Z,99331.22
2024-01-08T07:25:53.874Z,99332.41
2024-01-08T07:27:55.806Z,99338.16
2024-01-08T07:29:58.001Z,99339.34
2024-01-08T07:31:59.565Z,99345.59
2024-01-08T07:34:01.239Z,99351.31
2024-01-08T07:36:02.750Z,99346.97
2024-01-08T07:38:05.455Z,99351.66
2024-01-08T07:40:07.566Z,99350.19
2024-01-08T07:42:09.844Z,99351.56
2024-01-08T07:44:11.370Z,99356.47
2024-01-08T07:46:12.860Z,99356.00
2024-01-08T07:48:14.457Z,99353.00
2024-01-08T07:50:17.981Z,99357.06
2024-01-08T07:52:20.808Z,99355.75
2024-01-08T07:54:24.256Z,99363.53
2024-01-08T07:56:26.545Z,99371.09
2024-01-08T07:58:35.997Z,99373.31
2024-01-08T08:00:42.342Z,99384.44
2024-01-08T08:02:43.994Z,99380.44
2024-01-08T08:04:46.185Z,99385.97
2024-01-08T08:06:50.167Z,99384.47
2024-01-08T08:27:01.488Z,99421.91
2024-01-08T09:06:02.245Z,99465.75
2024-01-08T09:08:17.776Z,99463.88
2024-01-08T09:10:51.353Z,99467.06
2024-01-08T09:12:53.529Z,99459.88
2024-01-08T09:14:55.190Z,99473.63
2024-01-08T09:16:58.883Z,99466.22
2024-01-08T09:19:00.376Z,99472.09
2024-01-08T09:21:01.897Z,99468.03
2024-01-08T09:23:03.548Z,99476.59
2024-01-08T09:25:05.786Z,99483.63
2024-01-08T09:27:07.208Z,99483.47
2024-01-08T09:29:09.927Z,99487.81
2024-01-08T09:31:11.797Z,99486.63
2024-01-08T09:33:13.425Z,99490.34
2024-01-08T09:35:15.512Z,99486.81
2024-01-08T09:37:17.494Z,99482.09
2024-01-08T09:39:18.960Z,99483.63
2024-01-08T09:41:24.266Z,99491.34
2024-01-08T09:43:26.861Z,99486.63
2024-01-08T09:45:30.617Z,99488.97
2024-01-08T09:47:32.900Z,99485.94
2024-01-08T09:49:35.816Z,99491.13
2024-01-08T09:51:39.243Z,99482.69
2024-01-08T09:53:40.836Z,99485.06
2024-01-08T09:55:44.290Z,99490.25
2024-01-08T09:57:45.868Z,99492.59
2024-01-08T09:59:47.378Z,99489.91
2024-01-08T10:01:48.894Z,99491.94
2024-01-08T10:03:50.543Z,99489.06
2024-01-08T10:05:52.221Z,99500.66
2024-01-08T10:07:53.841Z,99501.66
2024-01-08T10:09:57.674Z,99497.31
2024-01-08T10:11:59.692Z,99495.63
2024-01-08T10:14:01.410Z,99496.47
2024-01-08T10:16:03.048Z,99489.91
2024-01-08T10:18:09.662Z,99493.59
2024-01-08T10:20:12.381Z,99504.34
2024-01-08T10:22:15.272Z,99494.94
2024-01-08T10:24:17.154Z,99493.91
2024-01-08T10:26:19.652Z,99500.78
2024-01-08T10:28:21.213Z,99501.81
2024-01-08T10:30:23.140Z,99501.81
2024-01-08T10:32:25.524Z,99494.56
2024-01-08T10:34:27.966Z,99496.59
2024-01-08T10:36:33.811Z,99488.72
2024-01-08T10:38:35.662Z,99489.91
2024-01-08T10:40:38.788Z,99483.88
2024-01-08T10:42:42.174Z,99489.91
2024-01-08T10:44:43.678Z,99504.34
2024-01-08T10:47:00.358Z,99489.06
2024-01-08T10:49:04.032Z,99490.75
2024-01-08T10:51:08.002Z,99490.56
2024-01-08T10:53:13.691Z,99500.31
2024-01-08T10:55:53.910Z,99487.88
2024-01-08T10:58:05.074Z,99491.56
2024-01-08T11:00:11.501Z,99486.03
2024-01-08T11:02:17.966Z,99488.72
2024-01-08T11:04:19.609Z,99484.81
2024-01-08T11:06:23.382Z,99481.78
2024-01-08T11:08:26.388Z,99484.47
2024-01-08T11:10:29.715Z,99487.97
2024-01-08T11:12:39.940Z,99490.53
2024-01-08T11:14:41.848Z,99480.41
2024-01-08T11:16:43.994Z,99481.91
2024-01-08T11:18:45.640Z,99488.13
2024-01-08T11:20:48.617Z,99485.44
2024-01-08T11:22:50.127Z,99487.09
2024-01-08T11:24:56.831Z,99494.16
2024-01-08T11:26:58.495Z,99497.88
2024-01-08T11:29:04.705Z,99491.81
2024-01-08T11:31:31.433Z,99492.00
2024-01-08T11:33:47.251Z,99494.72
2024-01-08T11:36:03.722Z,99502.78
2024-01-08T11:38:21.461Z,99498.59
2024-01-08T11:40:22.984Z,99502.13
2024-01-08T11:42:24.992Z,99501.75
2024-01-08T11:44:27.396Z,99491.47
2024-01-08T11:46:29.015Z,99504.59
2024-01-08T11:48:31.557Z,99493.47
2024-01-08T11:50:33.074Z,99496.63
2024-01-08T11:52:38.014Z,99489.91
2024-01-08T11:54:39.978Z,99495.75
2024-01-08T11:56:41.769Z,99496.06
2024-01-08T11:58:48.878Z,99504.63
2024-01-08T12:00:51.400Z,99497.03
2024-01-08T12:03:02.058Z,99495.66
2024-01-08T12:05:04.756Z,99488.06
2024-01-08T12:07:06.294Z,99491.22
2024-01-08T12:09:07.807Z,99492.38
2024-01-08T12:11:09.611Z,99487.47
2024-01-08T12:13:11.085Z,99490.81
2024-01-08T12:15:12.805Z,99487.09
2024-01-08T12:17:17.217Z,99489.63
2024-01-08T12:19:18.956Z,99486.72
2024-01-08T12:21:20.598Z,99490.75
2024-01-08T12:23:22.213Z,99477.94
2024-01-08T12:25:23.847Z,99492.91
2024-01-08T12:27:44.606Z,99496.06
2024-01-08T12:29:47.787Z,99490.31
2024-01-08T12:31:56.543Z,99492.00
2024-01-08T12:33:59.925Z,99489.09
2024-01-08T12:36:01.847Z,99494.13
2024-01-08T12:38:05.489Z,99495.00
2024-01-08T12:40:08.934Z,99502.03
2024-01-08T12:42:13.602Z,99495.84
2024-01-08T12:44:24.125Z,99506.59
2024-01-08T12:46:25.609Z,99504.72
2024-01-08T12:48:27.650Z,99497.50
2024-01-08T12:50:29.465Z,99498.34
2024-01-08T12:52:35.965Z,99511.16
2024-01-08T12:54:40.824Z,99507.97
2024-01-08T12:56:42.506Z,99497.53
2024-01-08T12:58:43.954Z,99507.50
2024-01-08T13:00:46.476Z,99503.13
2024-01-08T13:02:48.040Z,99501.28
2024-01-08T13:04:53.512Z,99493.56
2024-01-08T13:06:55.206Z,99503.31
2024-01-08T13:08:56.795Z,99504.31
2024-01-08T13:10:58.303Z,99506.03
2024-01-08T13:13:00.672Z,99511.56
2024-01-08T13:15:02.358Z,99500.78
2024-01-08T13:17:04.375Z,99508.88
2024-01-08T13:19:08.078Z,99513.25
2024-01-08T13:21:09.901Z,99507.22
2024-01-08T13:23:11.582Z,99507.38
2024-01-08T13:25:14.266Z,99511.09
2024-01-08T13:27:15.861Z,99511.28
2024-01-08T13:29:17.451Z,99530.78
2024-01-08T13:31:18.934Z,99529.28
2024-01-08T13:33:20.546Z,99522.41
2024-01-08T13:35:23.153Z,99531.50
2024-01-08T13:37:24.685Z,99528.97
2024-01-08T13:39:26.873Z,99525.63
2024-01-08T13:41:29.494Z,99525.81
2024-01-08T13:43:32.232Z,99526.81
2024-01-08T13:45:33.678Z,99532.56
2024-01-08T13:47:35.338Z,99537.28
2024-01-08T13:49:37.208Z,99533.94
2024-01-08T13:51:38.739Z,99530.94
2024-01-08T13:53:41.891Z,99534.66
2024-01-08T13:55:43.464Z,99530.31
2024-01-08T13:57:45.521Z,99533.00
2024-01-08T13:59:47.094Z,99523.22
2024-01-08T14:01:48.652Z,99530.31
2024-01-08T14:03:50.179Z,99527.59
2024-01-08T14:05:53.085Z,99530.94
2024-01-08T14:07:54.833Z,99535.34
2024-01-08T14:09:56.296Z,99536.00
2024-01-08T14:11:59.429Z,99531.59
2024-01-08T14:14:00.958Z,99531.81
2024-01-08T14:16:03.213Z,99535.34
2024-01-08T14:18:05.367Z,99538.03
2024-01-08T14:20:10.137Z,99528.25
2024-01-08T14:22:11.725Z,99537.34
2024-01-08T14:24:13.209Z,99540.22
2024-01-08T14:26:16.446Z,99543.09
2024-01-08T14:28:18.421Z,99550.34
2024-01-08T14:30:19.975Z,99555.06
2024-01-08T14:32:21.628Z,99560.47
2024-01-08T14:34:26.112Z,99563.31
2024-01-08T14:36:27.954Z,99560.81
2024-01-08T14:38:30.246Z,99563.66
2024-01-08T14:40:31.725Z,99570.22
2024-01-08T14:42:33.251Z,99576.63
2024-01-08T14:44:35.034Z,99572.44
2024-01-08T14:46:36.542Z,99572.59
2024-01-08T14:48:38.274Z,99577.53
2024-01-08T14:50:40.058Z,99579.72
2024-01-08T14:52:41.560Z,99585.28
2024-01-08T14:54:43.138Z,99591.84
2024-01-08T14:56:44.604Z,99592.19
2024-01-08T14:58:46.336Z,99591.53
2024-01-08T15:00:48.184Z,99588.16
2024-01-08T15:02:49.730Z,99596.41
2024-01-08T15:04:51.274Z,99591.38
2024-01-08T15:06:52.765Z,99599.63
2024-01-08T15:08:55.061Z,99596.09
2024-01-08T15:10:58.461Z,99599.97
2024-01-08T15:12:59.952Z,99604.50
2024-01-08T15:15:02.313Z,99608.56
2024-01-08T15:17:04.609Z,99618.69
2024-01-08T15:19:06.283Z,99612.44
2024-01-08T15:21:07.834Z,99611.78
2024-01-08T15:23:09.621Z,99615.66
2024-01-08T15:25:13.066Z,99618.50
2024-01-08T15:27:14.539Z,99621.72
2024-01-08T15:29:19.468Z,99621.06
2024-01-08T15:31:25.047Z,99627.78
2024-01-08T15:33:28.244Z,99625.44
2024-01-08T15:35:38.807Z,99628.47
2024-01-08T15:37:40.693Z,99629.81
2024-01-08T15:39:42.725Z,99630.19
2024-01-08T15:41:44.461Z,99633.84
2024-01-08T15:43:46.103Z,99637.72
2024-01-08T15:45:49.456Z,99632.69
2024-01-08T15:47:51.049Z,99648.16
2024-01-08T15:49:52.587Z,99636.88
2024-01-08T15:51:54.088Z,99636.06
2024-01-08T15:53:55.528Z,99638.06
2024-01-08T15:55:56.996Z,99639.25
2024-01-08T15:58:00.221Z,99635.22
2024-01-08T16:00:02.500Z,99647.16
2024-01-08T16:02:07.996Z,99646.31
2024-01-08T16:04:09.642Z,99651.69
2024-01-08T16:06:11.437Z,99660.25
2024-01-08T16:08:14.634Z,99660.59
2024-01-08T16:10:16.447Z,99669.81
2024-01-08T16:12:17.932Z,99671.19
2024-01-08T16:14:19.386Z,99674.19
2024-01-08T16:16:23.524Z,99676.34
2024-01-08T16:18:25.228Z,99683.59
2024-01-08T16:20:26.970Z,99676.72
2024-01-08T16:22:28.947Z,99678.56
2024-01-08T16:24:31.084Z,99682.41
2024-01-08T16:26:32.638Z,99684.44
2024-01-08T16:28:34.145Z,99688.13
2024-01-08T16:30:35.677Z,99690.97
2024-01-08T16:32:37.367Z,99686.78
2024-01-08T16:34:45.937Z,99683.56
2024-01-08T16:36:54.029Z,99687.25
2024-01-08T16:38:55.539Z,99696.47
2024-01-08T16:40:57.886Z,99692.13
2024-01-08T16:43:00.285Z,99702.34
2024-01-08T16:45:01.805Z,99705.03
2024-01-08T16:47:03.783Z,99702.00
2024-01-08T16:49:05.605Z,99712.06
2024-01-08T16:51:07.348Z,99711.41
2024-01-08T16:53:09.003Z,99717.94
2024-01-08T16:55:10.509Z,99716.44
2024-01-08T16:57:14.921Z,99728.16
2024-01-08T16:59:18.152Z,99716.75
2024-01-08T17:01:21.485Z,99723.09
2024-01-08T17:03:24.006Z,99725.97
2024-01-08T17:05:25.633Z,99728.66
2024-01-08T17:07:28.542Z,99727.28
2024-01-08T17:09:39.694Z,99727.44
2024-01-08T17:11:41.347Z,99728.63
2024-01-08T17:13:43.329Z,99730.44
2024-01-08T17:15:44.900Z,99735.69
2024-01-08T17:17:46.561Z,99734.16
2024-01-08T17:19:48.160Z,99740.50
2024-01-08T17:21:49.671Z,99737.16
2024-01-08T17:23:51.189Z,99744.38
2024-01-08T17:25:52.732Z,99748.03
2024-01-08T17:27:54.217Z,99746.38
2024-01-08T17:29:55.742Z,99751.88
2024-01-08T17:31:57.196Z,99751.06
2024-01-08T17:33:59.337Z,99757.59
2024-01-08T17:36:01.263Z,99753.91
2024-01-08T17:38:03.225Z,99759.56
2024-01-08T17:40:05.997Z,99759.94
2024-01-08T17:42:07.923Z,99757.56
2024-01-08T17:44:09.571Z,99764.75
2024-01-08T17:46:12.214Z,99770.28
2024-01-08T17:48:14.303Z,99769.59
2024-01-08T17:50:15.920Z,99771.59
2024-01-08T17:52:17.450Z,99768.25
2024-01-08T17:54:18.933Z,99769.94
2024-01-08T17:56:20.611Z,99765.56
2024-01-08T17:58:22.127Z,99769.09
2024-01-08T18:00:23.823Z,99774.75
2024-01-08T18:02:25.523Z,99775.63
2024-01-08T18:04:27.355Z,99775.75
2024-01-08T18:06:29.572Z,99778.59
2024-01-08T18:08:33.220Z,99774.41
2024-01-08T18:10:34.980Z,99778.91
2024-01-08T18:12:38.982Z,99785.44
2024-01-08T18:14:41.478Z,99785.63
2024-01-08T18:16:48.939Z,99790.44
2024-01-08T18:18:50.555Z,99783.56
2024-01-08T18:20:52.707Z,99781.88
2024-01-08T18:22:54.163Z,99793.59
2024-01-08T18:24:55.705Z,99800.97
2024-01-08T18:26:57.154Z,99803.13
2024-01-08T18:29:00.208Z,99801.59
2024-01-08T18:31:02.009Z,99804.44
2024-01-08T18:33:04.437Z,99809.25
2024-01-08T18:35:07.101Z,99809.56
2024-01-08T18:37:08.593Z,99808.88
2024-01-08T18:39:11.816Z,99807.22
2024-01-08T18:41:13.326Z,99805.84
2024-01-08T18:43:14.923Z,99803.31
2024-01-08T18:45:18.249Z,99810.50
2024-01-08T18:47:19.922Z,99816.03
2024-01-08T18:49:21.999Z,99814.66
2024-01-08T18:51:23.734Z,99813.97
2024-01-08T18:53:25.921Z,99825.53
2024-01-08T18:55:27.615Z,99820.31
2024-01-08T18:57:30.686Z,99825.84
2024-01-08T18:59:36.037Z,99824.16
2024-01-08T19:01:38.972Z,99826.16
2024-01-08T19:03:40.763Z,99826.31
2024-01-08T19:05:42.313Z,99827.28
2024-01-08T19:07:43.823Z,99831.97
2024-01-08T19:09:45.455Z,99828.63
2024-01-08T19:11:46.968Z,99832.44
2024-01-08T19:13:48.839Z,99829.91
2024-01-08T19:15:50.385Z,99830.75
2024-01-08T19:17:51.998Z,99830.06
2024-01-08T19:19:53.637Z,99824.88
2024-01-08T19:21:55.128Z,99834.44
2024-01-08T19:23:56.569Z,99830.06
2024-01-08T19:26:00.607Z,99831.03
2024-01-08T19:30:57.509Z,99833.91
2024-01-08T19:33:00.333Z,99835.03
2024-01-08T19:35:02.107Z,99830.66
2024-01-08T19:37:03.723Z,99835.22
2024-01-08T19:39:05.411Z,99832.66
2024-01-08T19:41:07.407Z,99835.50
2024-01-08T19:43:09.597Z,99836.34
2024-01-08T19:45:11.101Z,99835.63
2024-01-08T19:47:12.595Z,99835.63
2024-01-08T19:49:21.315Z,99840.31
2024-01-08T19:51:31.033Z,99838.78
2024-01-08T19:53:33.207Z,99837.94
2024-01-08T19:55:42.013Z,99843.28
2024-01-08T19:57:52.932Z,99843.28
2024-01-08T20:00:02.050Z,99847.97
2024-01-08T20:02:14.960Z,99838.09
2024-01-08T20:04:16.522Z,99838.22
2024-01-08T20:06:18.200Z,99840.22
2024-01-08T20:08:20.972Z,99850.94
2024-01-08T20:10:23.107Z,99848.94
2024-01-08T20:12:24.577Z,99843.75
2024-01-08T20:14:28.104Z,99838.56
2024-01-08T20:16:29.714Z,99843.91
2024-01-08T20:18:31.319Z,99838.56
2024-01-08T20:20:32.925Z,99838.56
2024-01-08T20:22:34.402Z,99845.75
2024-01-08T20:24:35.907Z,99839.53
2024-01-08T20:26:37.542Z,99836.00
2024-01-08T20:28:40.186Z,99838.69
2024-01-08T20:30:41.729Z,99846.91
2024-01-08T20:32:48.497Z,99843.38
2024-01-08T20:34:50.962Z,99844.34
2024-01-08T20:36:56.666Z,99847.03
2024-01-08T20:38:58.729Z,99847.19
2024-01-08T20:41:01.064Z,99842.97
2024-01-08T20:43:02.568Z,99845.50
2024-01-08T20:45:04.345Z,99851.88
2024-01-08T20:47:05.853Z,99851.88
2024-01-08T20:49:07.643Z,99854.53
2024-01-08T20:51:09.101Z,99848.63
2024-01-08T20:53:12.505Z,99858.50
2024-01-08T20:55:14.636Z,99854.16
2024-01-08T20:57:16.131Z,99854.28
2024-01-08T20:59:21.556Z,99857.97
2024-01-08T21:01:23.041Z,99857.97
2024-01-08T21:03:24.674Z,99855.28
2024-01-08T21:05:26.362Z,99855.44
2024-01-08T21:07:28.940Z,99863.34
2024-01-08T21:09:30.369Z,99862.47
2024-01-08T21:11:32.101Z,99865.16
2024-01-08T21:13:33.968Z,99861.63
2024-01-08T21:15:37.877Z,99864.31
2024-01-08T21:17:43.386Z,99863.63
2024-01-08T21:19:45.043Z,99861.78
2024-01-08T21:21:46.525Z,99868.28
2024-01-08T21:23:48.040Z,99865.47
2024-01-08T21:25:49.764Z,99868.13
2024-01-08T21:27:51.576Z,99868.28
2024-01-08T21:29:53.079Z,99873.50
2024-01-08T21:31:54.671Z,99869.16
2024-01-08T21:33:56.232Z,99866.31
2024-01-08T21:35:57.764Z,99873.50
2024-01-08T21:37:59.228Z,99867.16
2024-01-08T21:40:01.059Z,99875.03
2024-01-08T21:42:03.507Z,99873.19
2024-01-08T21:44:05.105Z,99873.19
2024-01-08T21:46:06.894Z,99873.88
2024-01-08T21:48:09.713Z,99877.56
2024-01-08T21:50:11.585Z,99877.41
2024-01-08T21:52:13.474Z,99875.59
2024-01-08T21:54:14.902Z,99877.25
2024-01-08T21:56:17.611Z,99884.31
2024-01-08T21:58:19.118Z,99884.31
2024-01-08T22:00:20.862Z,99886.97
2024-01-08T22:02:22.407Z,99888.81
2024-01-08T22:04:23.909Z,99882.59
2024-01-08T22:06:25.424Z,99884.31
2024-01-08T22:08:27.178Z,99891.66
2024-01-08T22:10:28.640Z,99891.66
2024-01-08T22:12:30.076Z,99889.97
2024-01-08T22:14:32.478Z,99889.97
2024-01-08T22:16:34.182Z,99886.59
2024-01-08T22:18:35.661Z,99893.66
2024-01-08T22:20:37.183Z,99888.41
2024-01-08T22:22:38.733Z,99891.09
2024-01-08T22:24:41.108Z,99893.78
2024-01-08T22:26:42.975Z,99888.41
2024-01-08T22:28:44.693Z,99889.44
2024-01-08T22:30:46.189Z,99889.56
2024-01-08T22:32:49.207Z,99894.06
2024-01-08T22:34:50.765Z,99893.25
2024-01-08T22:36:52.216Z,99890.56
2024-01-08T22:38:53.763Z,99901.28
2024-01-08T22:40:55.516Z,99889.56
2024-01-08T22:42:57.088Z,99895.94
2024-01-08T22:44:58.611Z,99894.91
2024-01-08T22:47:00.254Z,99893.53
2024-01-08T22:49:01.989Z,99898.91
2024-01-08T22:51:03.632Z,99899.03
2024-01-08T22:53:05.207Z,99907.22
2024-01-08T22:55:06.965Z,99893.00
2024-01-08T22:57:09.433Z,99901.19
2024-01-08T22:59:11.135Z,99894.13
2024-01-08T23:01:13.510Z,99888.09
2024-01-08T23:03:15.108Z,99893.44
2024-01-08T23:05:16.785Z,99896.28
2024-01-08T23:07:18.337Z,99892.88
2024-01-08T23:09:20.349Z,99894.88
2024-01-08T23:11:21.925Z,99896.69
2024-01-08T23:13:23.685Z,99894.19
2024-01-08T23:15:25.112Z,99896.16
2024-01-08T23:17:26.661Z,99892.63
2024-01-08T23:19:28.261Z,99888.13
2024-01-08T23:21:30.029Z,99898.16
2024-01-08T23:23:31.501Z,99895.59
2024-01-08T23:25:33.004Z,99898.28
2024-01-08T23:27:34.501Z,99895.59
2024-01-08T23:29:36.877Z,99892.25
2024-01-08T23:31:38.468Z,99887.72
2024-01-08T23:33:39.966Z,99885.91
2024-01-08T23:35:41.511Z,99894.91
2024-01-08T23:37:42.998Z,99891.25
2024-01-08T23:39:44.616Z,99891.25
2024-01-08T23:41:46.302Z,99891.09
2024-01-08T23:43:48.596Z,99890.94
2024-01-08T23:45:50.105Z,99892.63
2024-01-08T23:47:51.688Z,99894.47
2024-01-08T23:49:53.262Z,99897.03
2024-01-08T23:51:54.715Z,99892.47
2024-01-08T23:53:56.236Z,99888.13
2024-01-08T23:55:57.721Z,99889.81
2024-01-08T23:57:59.158Z,99889.81
